createdAt,value
2023-05-25T00:00:17.069Z,101869.00
2023-05-25T00:02:44.557Z,101872.00
2023-05-25T00:05:12.709Z,101872.00
2023-05-25T00:07:39.949Z,101862.00
2023-05-25T00:10:07.896Z,101872.00
2023-05-25T00:12:35.455Z,101869.00
2023-05-25T00:15:02.257Z,101871.00
2023-05-25T00:17:31.990Z,101872.00
2023-05-25T00:20:09.205Z,101862.00
2023-05-25T00:22:39.631Z,101874.00
2023-05-25T00:25:07.582Z,101879.00
2023-05-25T00:27:34.367Z,101865.00
2023-05-25T00:30:01.316Z,101861.00
2023-05-25T00:32:28.234Z,101869.00
2023-05-25T00:34:55.794Z,101870.00
2023-05-25T00:37:22.551Z,101880.00
2023-05-25T00:39:49.339Z,101869.00
2023-05-25T00:42:16.448Z,101870.00
2023-05-25T00:44:43.408Z,101869.00
2023-05-25T00:47:11.767Z,101871.00
2023-05-25T00:49:38.731Z,101860.00
2023-05-25T00:52:06.231Z,101874.00
2023-05-25T00:54:33.660Z,101859.00
2023-05-25T00:57:04.475Z,101861.00
2023-05-25T00:59:41.837Z,101862.00
2023-05-25T01:02:16.263Z,101862.00
2023-05-25T01:04:56.303Z,101862.00
2023-05-25T01:07:27.825Z,101869.00
2023-05-25T01:10:01.557Z,101859.00
2023-05-25T01:12:32.153Z,101850.00
2023-05-25T01:15:03.929Z,101851.00
2023-05-25T01:17:30.925Z,101861.00
2023-05-25T01:22:51.420Z,101860.00
2023-05-25T01:25:37.348Z,101860.00
2023-05-25T01:28:13.099Z,101860.00
2023-05-25T01:30:42.385Z,101858.00
2023-05-25T01:33:11.364Z,101873.00
2023-05-25T01:35:41.814Z,101864.00
2023-05-25T01:38:09.796Z,101870.00
2023-05-25T01:40:36.742Z,101871.00
2023-05-25T01:43:03.543Z,101874.00
2023-05-25T01:45:32.917Z,101870.00
2023-05-25T01:48:27.679Z,101879.00
2023-05-25T01:51:25.679Z,101874.00
2023-05-25T01:54:09.213Z,101875.00
2023-05-25T01:56:37.442Z,101876.00
2023-05-25T01:59:07.920Z,101872.00
2023-05-25T02:01:36.833Z,101869.00
2023-05-25T02:04:04.664Z,101859.00
2023-05-25T02:06:31.861Z,101860.00
2023-05-25T02:08:58.666Z,101864.00
2023-05-25T02:11:25.719Z,101861.00
2023-05-25T02:13:52.489Z,101859.00
2023-05-25T02:16:19.581Z,101855.00
2023-05-25T02:18:46.382Z,101852.00
2023-05-25T02:21:13.203Z,101859.00
2023-05-25T02:23:40.047Z,101863.00
2023-05-25T02:26:07.871Z,101861.00
2023-05-25T02:28:34.651Z,101874.00
2023-05-25T02:31:01.595Z,101880.00
2023-05-25T02:33:28.626Z,101873.00
2023-05-25T02:35:56.136Z,101878.00
2023-05-25T02:38:22.939Z,101877.00
2023-05-25T02:40:49.825Z,101878.00
2023-05-25T02:43:16.642Z,101873.00
2023-05-25T02:45:43.629Z,101876.00
2023-05-25T02:48:10.651Z,101860.00
2023-05-25T02:50:37.409Z,101874.00
2023-05-25T02:53:04.872Z,101874.00
2023-05-25T02:55:31.728Z,101874.00
2023-05-25T02:57:59.955Z,101873.00
2023-05-25T03:00:26.991Z,101873.00
2023-05-25T03:02:53.807Z,101871.00
2023-05-25T03:05:20.709Z,101872.00
2023-05-25T03:07:47.940Z,101874.00
2023-05-25T03:10:14.765Z,101870.00
2023-05-25T03:12:41.556Z,101864.00
2023-05-25T03:15:09.339Z,101870.00
2023-05-25T03:17:36.127Z,101884.00
2023-05-25T03:20:04.236Z,101870.00
2023-05-25T03:22:31.258Z,101873.00
2023-05-25T03:24:59.701Z,101882.00
2023-05-25T03:27:26.475Z,101874.00
2023-05-25T03:29:53.238Z,101880.00
2023-05-25T03:32:20.885Z,101892.00
2023-05-25T03:34:47.711Z,101886.00
2023-05-25T03:37:14.640Z,101884.00
2023-05-25T03:39:41.467Z,101888.00
2023-05-25T03:42:08.426Z,101885.00
2023-05-25T03:44:35.196Z,101886.00
2023-05-25T03:47:02.429Z,101884.00
2023-05-25T03:49:29.188Z,101891.00
2023-05-25T03:51:56.229Z,101886.00
2023-05-25T03:54:23.041Z,101898.00
2023-05-25T03:56:50.384Z,101901.00
2023-05-25T03:59:17.216Z,101883.00
2023-05-25T04:01:44.010Z,101889.00
2023-05-25T04:04:10.980Z,101898.00
2023-05-25T04:06:38.040Z,101905.00
2023-05-25T04:09:05.116Z,101904.00
2023-05-25T04:11:31.974Z,101903.00
2023-05-25T04:13:59.898Z,101906.00
2023-05-25T04:16:27.101Z,101906.00
2023-05-25T04:18:53.994Z,101908.00
2023-05-25T04:21:20.924Z,101908.00
2023-05-25T04:23:47.790Z,101913.00
2023-05-25T04:26:16.477Z,101916.00
2023-05-25T04:28:43.262Z,101917.00
2023-05-25T04:31:10.296Z,101917.00
2023-05-25T04:33:38.703Z,101923.00
2023-05-25T04:36:06.683Z,101914.00
2023-05-25T04:38:34.165Z,101930.00
2023-05-25T04:41:02.223Z,101928.00
2023-05-25T04:43:29.998Z,101935.00
2023-05-25T04:45:57.989Z,101932.00
2023-05-25T04:48:24.974Z,101934.00
2023-05-25T04:50:53.082Z,101919.00
2023-05-25T04:53:20.688Z,101930.00
2023-05-25T04:55:49.307Z,101930.00
2023-05-25T04:58:16.207Z,101922.00
2023-05-25T05:00:43.255Z,101931.00
2023-05-25T05:03:11.176Z,101921.00
2023-05-25T05:05:38.135Z,101927.00
2023-05-25T05:08:05.186Z,101921.00
2023-05-25T05:10:32.028Z,101911.00
2023-05-25T05:12:58.844Z,101914.00
2023-05-25T05:15:26.212Z,101922.00
2023-05-25T05:17:54.331Z,101919.00
2023-05-25T05:20:21.385Z,101917.00
2023-05-25T05:22:48.193Z,101936.00
2023-05-25T05:25:15.042Z,101927.00
2023-05-25T05:27:41.817Z,101935.00
2023-05-25T05:30:09.331Z,101927.00
2023-05-25T05:32:36.116Z,101936.00
2023-05-25T05:35:02.918Z,101941.00
2023-05-25T05:37:29.769Z,101950.00
2023-05-25T05:39:56.920Z,101946.00
2023-05-25T05:42:23.701Z,101946.00
2023-05-25T05:44:51.192Z,101942.00
2023-05-25T05:47:17.965Z,101945.00
2023-05-25T05:49:44.764Z,101951.00
2023-05-25T05:52:11.532Z,101956.00
2023-05-25T05:54:38.303Z,101957.00
2023-05-25T05:57:06.454Z,101958.00
2023-05-25T05:59:34.111Z,101961.00
2023-05-25T06:02:01.067Z,101960.00
2023-05-25T06:04:29.143Z,101957.00
2023-05-25T06:06:56.121Z,101970.00
2023-05-25T06:09:23.076Z,101984.00
2023-05-25T06:11:49.900Z,101965.00
2023-05-25T06:14:16.727Z,101968.00
2023-05-25T06:16:43.945Z,101973.00
2023-05-25T06:19:11.045Z,101976.00
2023-05-25T06:21:37.877Z,101977.00
2023-05-25T06:24:05.524Z,101976.00
2023-05-25T06:26:32.329Z,101974.00
2023-05-25T06:28:59.209Z,101977.00
2023-05-25T06:31:26.412Z,101983.00
2023-05-25T06:33:53.245Z,101980.00
2023-05-25T06:36:20.094Z,101985.00
2023-05-25T06:38:47.252Z,101981.00
2023-05-25T06:41:15.409Z,101986.00
2023-05-25T06:43:45.185Z,101983.00
2023-05-25T06:46:17.805Z,101986.00
2023-05-25T06:48:46.375Z,101997.00
2023-05-25T06:51:13.666Z,101990.00
2023-05-25T06:53:40.662Z,101983.00
2023-05-25T06:56:07.799Z,101979.00
2023-05-25T06:58:34.614Z,101982.00
2023-05-25T07:01:01.717Z,101979.00
2023-05-25T07:03:28.788Z,101982.00
2023-05-25T07:05:55.711Z,101988.00
2023-05-25T07:08:22.535Z,101985.00
2023-05-25T07:10:50.405Z,101982.00
2023-05-25T07:13:17.429Z,101990.00
2023-05-25T07:15:44.611Z,101986.00
2023-05-25T07:18:12.608Z,101989.00
2023-05-25T07:20:43.924Z,101989.00
2023-05-25T07:23:11.701Z,101987.00
2023-05-25T07:25:39.444Z,101988.00
2023-05-25T07:28:06.569Z,101996.00
2023-05-25T07:30:33.780Z,101990.00
2023-05-25T07:33:01.261Z,101996.00
2023-05-25T07:35:28.184Z,101998.00
2023-05-25T07:38:04.615Z,101999.00
2023-05-25T07:40:31.651Z,101999.00
2023-05-25T07:42:58.559Z,101997.00
2023-05-25T07:45:25.639Z,102004.00
2023-05-25T07:47:52.721Z,102004.00
2023-05-25T07:50:19.761Z,102014.00
2023-05-25T07:52:46.973Z,102008.00
2023-05-25T07:55:14.023Z,102009.00
2023-05-25T07:57:40.970Z,102002.00
2023-05-25T08:00:09.586Z,102000.00
2023-05-25T08:02:36.716Z,101999.00
2023-05-25T08:05:06.077Z,102007.00
2023-05-25T08:07:34.140Z,102002.00
2023-05-25T08:10:01.592Z,102009.00
2023-05-25T08:12:45.984Z,102012.00
2023-05-25T08:15:15.501Z,102014.00
2023-05-25T08:17:42.674Z,102010.00
2023-05-25T08:20:10.429Z,102003.00
2023-05-25T08:22:37.387Z,102010.00
2023-05-25T08:25:05.269Z,102009.00
2023-05-25T08:27:34.544Z,102016.00
2023-05-25T08:30:05.781Z,102007.00
2023-05-25T08:32:32.595Z,102010.00
2023-05-25T08:34:59.404Z,102008.00
2023-05-25T08:37:26.315Z,102011.00
2023-05-25T08:39:53.181Z,102019.00
2023-05-25T08:42:20.158Z,102022.00
2023-05-25T08:44:46.941Z,102015.00
2023-05-25T08:47:17.193Z,102010.00
2023-05-25T08:49:45.482Z,102011.00
2023-05-25T08:52:14.972Z,102012.00
2023-05-25T08:54:45.056Z,102011.00
2023-05-25T08:57:29.928Z,102018.00
2023-05-25T09:00:12.900Z,102022.00
2023-05-25T09:02:59.811Z,102016.00
2023-05-25T09:05:27.216Z,102013.00
2023-05-25T09:07:54.851Z,102016.00
2023-05-25T09:10:24.522Z,102006.00
2023-05-25T09:12:52.507Z,102007.00
2023-05-25T09:15:19.289Z,102025.00
2023-05-25T09:17:46.116Z,102017.00
2023-05-25T09:20:16.477Z,102023.00
2023-05-25T09:22:44.689Z,102025.00
2023-05-25T09:25:13.028Z,102018.00
2023-05-25T09:27:40.955Z,102021.00
2023-05-25T09:30:08.650Z,102021.00
2023-05-25T09:32:36.274Z,102019.00
2023-05-25T09:35:15.396Z,102026.00
2023-05-25T09:37:44.338Z,102018.00
2023-05-25T09:40:11.756Z,102024.00
2023-05-25T09:42:38.781Z,102025.00
2023-05-25T09:45:06.901Z,102038.00
2023-05-25T09:47:37.479Z,102031.00
2023-05-25T09:50:05.687Z,102030.00
2023-05-25T09:52:33.050Z,102037.00
2023-05-25T09:54:59.851Z,102041.00
2023-05-25T09:57:28.226Z,102017.00
2023-05-25T09:59:55.609Z,102035.00
2023-05-25T10:02:22.503Z,102033.00
2023-05-25T10:04:49.350Z,102039.00
2023-05-25T10:07:17.327Z,102042.00
2023-05-25T10:09:47.277Z,102050.00
2023-05-25T10:12:20.329Z,102038.00
2023-05-25T10:14:51.084Z,102039.00
2023-05-25T10:17:23.758Z,102033.00
2023-05-25T10:19:57.925Z,102042.00
2023-05-25T10:22:40.858Z,102047.00
2023-05-25T10:25:19.941Z,102040.00
2023-05-25T10:28:15.251Z,102041.00
2023-05-25T10:30:43.334Z,102030.00
2023-05-25T10:33:11.277Z,102040.00
2023-05-25T10:35:56.108Z,102045.00
2023-05-25T10:38:29.017Z,102032.00
2023-05-25T10:40:58.100Z,102038.00
2023-05-25T10:43:26.303Z,102030.00
2023-05-25T10:45:55.483Z,102027.00
2023-05-25T10:48:23.085Z,102033.00
2023-05-25T10:50:51.590Z,102036.00
2023-05-25T10:53:23.595Z,102031.00
2023-05-25T10:55:53.283Z,102039.00
2023-05-25T10:58:22.519Z,102034.00
2023-05-25T11:01:11.688Z,102033.00
2023-05-25T11:03:45.066Z,102037.00
2023-05-25T11:06:16.967Z,102035.00
2023-05-25T11:09:03.711Z,102024.00
2023-05-25T11:11:42.531Z,102037.00
2023-05-25T11:14:42.123Z,102031.00
2023-05-25T11:17:14.844Z,102037.00
2023-05-25T11:19:56.175Z,102026.00
2023-05-25T11:22:37.794Z,102021.00
2023-05-25T11:25:38.617Z,102034.00
2023-05-25T11:28:11.437Z,102035.00
2023-05-25T11:30:41.381Z,102035.00
2023-05-25T11:33:09.021Z,102045.00
2023-05-25T11:35:37.287Z,102040.00
2023-05-25T11:38:08.748Z,102040.00
2023-05-25T11:40:37.782Z,102040.00
2023-05-25T11:43:08.212Z,102037.00
2023-05-25T11:45:37.255Z,102032.00
2023-05-25T11:48:05.967Z,102030.00
2023-05-25T11:50:33.348Z,102028.00
2023-05-25T11:53:00.658Z,102027.00
2023-05-25T11:55:27.586Z,102031.00
2023-05-25T11:57:58.206Z,102028.00
2023-05-25T12:00:27.908Z,102022.00
2023-05-25T12:02:55.258Z,102017.00
2023-05-25T12:05:23.794Z,102016.00
2023-05-25T12:07:52.597Z,102024.00
2023-05-25T12:10:19.459Z,102024.00
2023-05-25T12:12:49.834Z,102025.00
2023-05-25T12:15:21.912Z,102027.00
2023-05-25T12:17:50.535Z,102025.00
2023-05-25T12:20:18.442Z,102017.00
2023-05-25T12:22:46.628Z,102015.00
2023-05-25T12:25:18.541Z,102018.00
2023-05-25T12:27:45.566Z,102025.00
2023-05-25T12:30:12.670Z,102021.00
2023-05-25T12:33:02.652Z,102027.00
2023-05-25T12:35:45.199Z,102028.00
2023-05-25T12:38:22.076Z,102023.00
2023-05-25T12:41:07.054Z,102035.00
2023-05-25T12:43:39.643Z,102018.00
2023-05-25T12:46:06.491Z,102030.00
2023-05-25T12:48:33.300Z,102027.00
2023-05-25T12:51:00.191Z,102031.00
2023-05-25T12:53:29.013Z,102017.00
2023-05-25T12:56:06.443Z,102018.00
2023-05-25T12:58:33.384Z,102023.00
2023-05-25T13:01:00.267Z,102021.00
2023-05-25T13:03:27.172Z,102020.00
2023-05-25T13:06:02.195Z,102017.00
2023-05-25T13:08:30.274Z,102034.00
2023-05-25T13:10:57.098Z,102022.00
2023-05-25T13:13:23.870Z,102021.00
2023-05-25T13:15:50.649Z,102023.00
2023-05-25T13:18:17.437Z,102016.00
2023-05-25T13:20:45.380Z,102006.00
2023-05-25T13:23:14.152Z,102009.00
2023-05-25T13:25:40.959Z,102011.00
2023-05-25T13:28:07.801Z,102006.00
2023-05-25T13:30:34.584Z,101997.00
2023-05-25T13:33:01.404Z,102001.00
2023-05-25T13:35:41.629Z,102010.00
2023-05-25T13:38:09.881Z,102002.00
2023-05-25T13:40:36.749Z,101997.00
2023-05-25T13:43:03.540Z,101999.00
2023-05-25T13:45:30.316Z,101988.00
2023-05-25T13:47:57.214Z,102007.00
2023-05-25T13:50:24.133Z,101996.00
2023-05-25T13:52:50.960Z,101994.00
2023-05-25T13:55:17.735Z,101992.00
2023-05-25T13:57:44.601Z,101995.00
2023-05-25T14:00:12.324Z,101983.00
2023-05-25T14:02:39.210Z,101988.00
2023-05-25T14:05:06.599Z,101991.00
2023-05-25T14:07:33.394Z,101993.00
2023-05-25T14:10:01.103Z,101987.00
2023-05-25T14:12:30.187Z,101985.00
2023-05-25T14:14:56.948Z,101995.00
2023-05-25T14:17:24.634Z,101987.00
2023-05-25T14:19:51.484Z,101980.00
2023-05-25T14:22:19.001Z,101981.00
2023-05-25T14:24:45.904Z,101978.00
2023-05-25T14:27:12.891Z,101982.00
2023-05-25T14:29:39.673Z,101979.00
2023-05-25T14:32:06.597Z,101979.00
2023-05-25T14:34:33.365Z,101978.00
2023-05-25T14:37:00.289Z,101978.00
2023-05-25T14:39:27.041Z,101980.00
2023-05-25T14:41:53.833Z,101982.00
2023-05-25T14:44:20.583Z,101972.00
2023-05-25T14:46:47.493Z,101969.00
2023-05-25T14:49:14.436Z,101973.00
2023-05-25T14:51:41.270Z,101979.00
2023-05-25T14:54:08.283Z,101975.00
2023-05-25T14:56:35.570Z,101980.00
2023-05-25T14:59:02.401Z,101984.00
2023-05-25T15:01:29.539Z,101982.00
2023-05-25T15:03:56.843Z,101987.00
2023-05-25T15:06:23.920Z,101979.00
2023-05-25T15:08:51.457Z,101968.00
2023-05-25T15:11:18.674Z,101967.00
2023-05-25T15:13:45.984Z,101966.00
2023-05-25T15:16:14.728Z,101975.00
2023-05-25T15:18:42.914Z,101964.00
2023-05-25T15:21:09.762Z,101973.00
2023-05-25T15:23:37.031Z,101957.00
2023-05-25T15:26:08.010Z,101958.00
2023-05-25T15:28:35.063Z,101968.00
2023-05-25T15:31:03.414Z,101965.00
2023-05-25T15:33:44.152Z,101971.00
2023-05-25T15:36:17.080Z,101978.00
2023-05-25T15:38:44.523Z,101965.00
2023-05-25T15:41:16.438Z,101968.00
2023-05-25T15:43:54.255Z,101970.00
2023-05-25T15:46:21.263Z,101967.00
2023-05-25T15:48:48.112Z,101961.00
2023-05-25T15:51:14.902Z,101963.00
2023-05-25T15:53:41.742Z,101958.00
2023-05-25T15:56:08.556Z,101966.00
2023-05-25T15:58:35.371Z,101961.00
2023-05-25T16:01:02.700Z,101968.00
2023-05-25T16:03:29.808Z,101961.00
2023-05-25T16:05:57.200Z,101962.00
2023-05-25T16:08:24.200Z,101954.00
2023-05-25T16:10:50.999Z,101963.00
2023-05-25T16:13:17.795Z,101956.00
2023-05-25T16:15:44.870Z,101953.00
2023-05-25T16:18:11.825Z,101952.00
2023-05-25T16:20:39.733Z,101949.00
2023-05-25T16:23:06.678Z,101953.00
2023-05-25T16:25:33.770Z,101950.00
2023-05-25T16:28:00.636Z,101946.00
2023-05-25T16:30:27.514Z,101952.00
2023-05-25T16:32:54.335Z,101947.00
2023-05-25T16:35:21.638Z,101955.00
2023-05-25T16:37:48.413Z,101946.00
2023-05-25T16:40:15.531Z,101943.00
2023-05-25T16:42:42.787Z,101947.00
2023-05-25T16:45:10.060Z,101948.00
2023-05-25T16:47:37.122Z,101944.00
2023-05-25T16:50:04.292Z,101933.00
2023-05-25T16:52:31.221Z,101948.00
2023-05-25T16:54:59.185Z,101940.00
2023-05-25T16:57:26.002Z,101941.00
2023-05-25T16:59:53.786Z,101933.00
2023-05-25T17:02:20.808Z,101939.00
2023-05-25T17:04:47.630Z,101935.00
2023-05-25T17:07:14.446Z,101930.00
2023-05-25T17:09:41.199Z,101935.00
2023-05-25T17:12:08.454Z,101935.00
2023-05-25T17:14:35.301Z,101938.00
2023-05-25T17:17:02.055Z,101934.00
2023-05-25T17:19:28.905Z,101934.00
2023-05-25T17:21:55.717Z,101935.00
2023-05-25T17:24:22.483Z,101936.00
2023-05-25T17:26:52.086Z,101936.00
2023-05-25T17:29:18.927Z,101945.00
2023-05-25T17:31:48.475Z,101941.00
2023-05-25T17:34:16.480Z,101942.00
2023-05-25T17:36:43.305Z,101935.00
2023-05-25T17:39:10.629Z,101938.00
2023-05-25T17:41:37.424Z,101943.00
2023-05-25T17:44:04.218Z,101949.00
2023-05-25T17:46:31.355Z,101948.00
2023-05-25T17:48:58.274Z,101954.00
2023-05-25T17:51:25.047Z,101951.00
2023-05-25T17:53:51.869Z,101954.00
2023-05-25T17:56:18.688Z,101961.00
2023-05-25T17:58:47.477Z,101958.00
2023-05-25T18:01:15.849Z,101965.00
2023-05-25T18:03:42.968Z,101966.00
2023-05-25T18:06:10.120Z,101959.00
2023-05-25T18:08:36.940Z,101951.00
2023-05-25T18:11:03.834Z,101963.00
2023-05-25T18:13:30.666Z,101970.00
2023-05-25T18:15:57.481Z,101966.00
2023-05-25T18:18:24.885Z,101958.00
2023-05-25T18:20:51.901Z,101956.00
2023-05-25T18:23:18.803Z,101965.00
2023-05-25T18:25:46.020Z,101960.00
2023-05-25T18:28:14.986Z,101965.00
2023-05-25T18:30:46.128Z,101969.00
2023-05-25T18:33:13.052Z,101968.00
2023-05-25T18:35:40.218Z,101973.00
2023-05-25T18:38:07.298Z,101979.00
2023-05-25T18:40:34.128Z,101973.00
2023-05-25T18:43:00.937Z,101974.00
2023-05-25T18:45:27.757Z,101976.00
2023-05-25T18:47:54.599Z,101980.00
2023-05-25T18:50:21.678Z,101977.00
2023-05-25T18:52:51.105Z,101975.00
2023-05-25T18:55:19.019Z,101981.00
2023-05-25T18:57:46.599Z,101977.00
2023-05-25T19:00:14.358Z,101990.00
2023-05-25T19:02:41.292Z,101983.00
2023-05-25T19:05:11.354Z,101986.00
2023-05-25T19:07:54.743Z,101990.00
2023-05-25T19:10:25.366Z,101992.00
2023-05-25T19:12:52.243Z,101994.00
2023-05-25T19:15:19.039Z,101994.00
2023-05-25T19:17:46.671Z,101999.00
2023-05-25T19:20:13.639Z,102005.00
2023-05-25T19:22:41.712Z,102001.00
2023-05-25T19:25:08.787Z,101992.00
2023-05-25T19:27:35.729Z,101998.00
2023-05-25T19:30:02.676Z,101997.00
2023-05-25T19:32:29.603Z,102002.00
2023-05-25T19:34:57.433Z,102010.00
2023-05-25T19:37:24.258Z,102003.00
2023-05-25T19:39:51.035Z,102005.00
2023-05-25T19:42:18.008Z,102012.00
2023-05-25T19:44:46.169Z,101998.00
2023-05-25T19:47:12.936Z,102009.00
2023-05-25T19:49:39.815Z,102004.00
2023-05-25T19:52:06.727Z,102007.00
2023-05-25T19:54:33.624Z,102016.00
2023-05-25T19:57:00.898Z,102009.00
2023-05-25T19:59:30.081Z,102012.00
2023-05-25T20:01:57.049Z,102017.00
2023-05-25T20:04:24.263Z,102011.00
2023-05-25T20:06:51.956Z,102023.00
2023-05-25T20:09:19.050Z,102024.00
2023-05-25T20:11:45.915Z,102025.00
2023-05-25T20:14:12.766Z,102029.00
2023-05-25T20:16:39.646Z,102029.00
2023-05-25T20:19:07.801Z,102034.00
2023-05-25T20:24:01.806Z,102039.00
2023-05-25T20:26:28.580Z,102039.00
2023-05-25T20:28:55.523Z,102027.00
2023-05-25T20:31:22.371Z,102037.00
2023-05-25T20:33:49.183Z,102039.00
2023-05-25T20:36:16.675Z,102037.00
2023-05-25T20:38:45.411Z,102037.00
2023-05-25T20:41:12.936Z,102045.00
2023-05-25T20:43:40.823Z,102036.00
2023-05-25T20:46:11.242Z,102040.00
2023-05-25T20:48:39.401Z,102053.00
2023-05-25T20:51:06.255Z,102044.00
2023-05-25T20:53:33.053Z,102040.00
2023-05-25T20:56:02.317Z,102030.00
2023-05-25T20:58:29.281Z,102038.00
2023-05-25T21:00:56.063Z,102033.00
2023-05-25T21:03:23.118Z,102038.00
2023-05-25T21:05:50.029Z,102042.00
2023-05-25T21:08:16.947Z,102042.00
2023-05-25T21:10:43.723Z,102040.00
2023-05-25T21:13:10.806Z,102039.00
2023-05-25T21:15:37.602Z,102041.00
2023-05-25T21:18:05.592Z,102041.00
2023-05-25T21:20:33.092Z,102041.00
2023-05-25T21:23:00.655Z,102044.00
2023-05-25T21:25:27.453Z,102050.00
2023-05-25T21:27:56.746Z,102049.00
2023-05-25T21:30:24.370Z,102047.00
2023-05-25T21:32:51.371Z,102055.00
2023-05-25T21:35:18.297Z,102055.00
2023-05-25T21:37:45.829Z,102055.00
2023-05-25T21:40:13.356Z,102049.00
2023-05-25T21:42:40.185Z,102046.00
2023-05-25T21:45:07.687Z,102049.00
2023-05-25T21:47:35.177Z,102053.00
2023-05-25T21:50:02.054Z,102059.00
2023-05-25T21:52:29.303Z,102062.00
2023-05-25T21:54:56.592Z,102061.00
2023-05-25T21:57:23.365Z,102054.00
2023-05-25T21:59:50.174Z,102061.00
2023-05-25T22:02:17.179Z,102066.00
2023-05-25T22:04:44.018Z,102075.00
2023-05-25T22:07:10.806Z,102066.00
2023-05-25T22:09:37.619Z,102066.00
2023-05-25T22:12:04.724Z,102072.00
2023-05-25T22:14:31.491Z,102068.00
2023-05-25T22:16:58.344Z,102080.00
2023-05-25T22:19:25.406Z,102075.00
2023-05-25T22:21:53.445Z,102085.00
2023-05-25T22:24:20.342Z,102084.00
2023-05-25T22:26:47.117Z,102083.00
2023-05-25T22:29:13.905Z,102090.00
2023-05-25T22:31:41.221Z,102082.00
2023-05-25T22:34:08.035Z,102088.00
2023-05-25T22:36:34.873Z,102079.00
2023-05-25T22:39:01.734Z,102086.00
2023-05-25T22:41:28.560Z,102081.00
2023-05-25T22:43:55.439Z,102086.00
2023-05-25T22:46:23.290Z,102077.00
2023-05-25T22:48:50.111Z,102089.00
2023-05-25T22:51:16.952Z,102084.00
2023-05-25T22:53:44.274Z,102087.00
2023-05-25T22:56:11.472Z,102093.00
2023-05-25T22:58:38.608Z,102096.00
2023-05-25T23:01:05.470Z,102097.00
2023-05-25T23:03:32.369Z,102093.00
2023-05-25T23:05:59.257Z,102086.00
2023-05-25T23:08:26.178Z,102089.00
2023-05-25T23:10:52.927Z,102097.00
2023-05-25T23:13:19.680Z,102097.00
2023-05-25T23:15:47.550Z,102101.00
2023-05-25T23:18:14.828Z,102102.00
2023-05-25T23:20:41.868Z,102088.00
2023-05-25T23:23:08.826Z,102100.00
2023-05-25T23:25:36.376Z,102099.00
2023-05-25T23:28:03.199Z,102094.00
2023-05-25T23:30:29.985Z,102090.00
2023-05-25T23:32:56.846Z,102087.00
2023-05-25T23:35:23.655Z,102087.00
2023-05-25T23:37:51.925Z,102087.00
2023-05-25T23:40:18.932Z,102083.00
2023-05-25T23:42:45.865Z,102084.00
2023-05-25T23:45:13.559Z,102091.00
2023-05-25T23:47:40.682Z,102094.00
2023-05-25T23:50:07.929Z,102095.00
2023-05-25T23:52:34.976Z,102088.00
2023-05-25T23:55:02.147Z,102080.00
2023-05-25T23:57:28.916Z,102091.00
2023-05-25T23:59:55.919Z,102093.00
